Time;durP1;ratioP1;P1;durP2;ratioP2;P2;SDS_P1;SDS_P2;PMS_P1;PMS_P2;Temp;Humidity;BMP_temperature;BMP_pressure;BME280_temperature;BME280_humidity;BME280_pressure;Samples;Min_cycle;Max_cycle;Signal;HPM_P1;HPM_P2
2023/11/25 00:02:58;;;;;;;7.25;3.60;;;;;;;3.38;93.12;98118.63;6196670;28;20084;-73
2023/11/25 00:05:59;;;;;;;7.38;3.08;;;;;;;3.35;93.40;98126.53;6196787;28;20058;-76
2023/11/25 00:09:03;;;;;;;6.97;3.10;;;;;;;3.32;93.35;98129.31;6197877;28;20062;-73
2023/11/25 00:12:04;;;;;;;7.97;2.72;;;;;;;3.30;93.17;98118.28;6197756;28;20489;-73
2023/11/25 00:15:08;;;;;;;5.28;2.60;;;;;;;3.25;93.31;98144.31;6198313;28;20050;-72
2023/11/25 00:18:12;;;;;;;7.97;2.83;;;;;;;3.28;93.49;98151.88;6202548;28;20412;-73
2023/11/25 00:21:13;;;;;;;7.88;3.15;;;;;;;3.34;92.86;98148.91;6202251;28;20054;-75
2023/11/25 00:24:14;;;;;;;7.85;3.67;;;;;;;3.32;93.67;98155.91;6202049;28;20133;-76
2023/11/25 00:27:15;;;;;;;4.13;2.78;;;;;;;3.30;93.00;98164.69;6200535;28;20050;-76
2023/11/25 00:30:16;;;;;;;4.97;2.78;;;;;;;3.30;93.41;98180.97;6201251;28;20077;-73
2023/11/25 00:33:20;;;;;;;5.82;3.38;;;;;;;3.26;93.02;98178.66;6202325;28;20145;-75
2023/11/25 00:36:21;;;;;;;5.32;2.75;;;;;;;3.22;93.42;98178.84;6200933;28;20062;-73
2023/11/25 00:39:27;;;;;;;5.30;2.83;;;;;;;3.17;93.16;98178.31;6202289;28;20058;-77
2023/11/25 00:42:29;;;;;;;7.82;2.90;;;;;;;3.10;93.56;98169.28;6200897;28;20058;-76
2023/11/25 00:45:32;;;;;;;5.47;2.72;;;;;;;3.10;93.29;98173.59;6202229;28;20046;-72
2023/11/25 00:48:35;;;;;;;5.80;2.40;;;;;;;3.12;92.94;98174.34;6201868;28;20157;-76
2023/11/25 00:51:37;;;;;;;4.70;2.83;;;;;;;3.08;93.14;98160.81;6200772;28;20489;-72
2023/11/25 00:54:39;;;;;;;5.03;2.58;;;;;;;3.10;92.45;98171.03;6201107;28;20050;-72
2023/11/25 00:57:40;;;;;;;6.28;2.47;;;;;;;2.99;92.63;98175.09;6202001;28;20054;-73
2023/11/25 01:00:40;;;;;;;4.85;2.67;;;;;;;2.87;92.81;98173.25;6200556;28;20062;-75
2023/11/25 01:03:41;;;;;;;11.15;3.78;;;;;;;2.91;93.16;98187.59;6201159;28;20042;-72
2023/11/25 01:06:47;;;;;;;31.77;9.23;;;;;;;2.92;92.88;98168.63;6200711;28;20413;-75
2023/11/25 01:09:51;;;;;;;29.65;9.95;;;;;;;2.90;92.95;98170.47;6201887;28;20140;-75
2023/11/25 01:12:54;;;;;;;23.20;7.30;;;;;;;2.88;93.37;98169.72;6200422;28;20054;-75
2023/11/25 01:16:00;;;;;;;21.40;7.20;;;;;;;2.82;93.15;98163.22;6201433;28;20050;-75
2023/11/25 01:19:01;;;;;;;11.98;4.82;;;;;;;2.76;93.47;98155.00;6201495;28;20092;-73
2023/11/25 01:22:03;;;;;;;10.55;5.20;;;;;;;2.76;93.82;98150.69;6199910;28;20058;-75
2023/11/25 01:25:06;;;;;;;7.07;3.22;;;;;;;2.76;94.34;98136.97;6199605;28;20132;-73
2023/11/25 01:28:07;;;;;;;6.53;2.92;;;;;;;2.73;94.59;98130.25;6199874;28;20054;-73
2023/11/25 01:31:10;;;;;;;9.27;3.38;;;;;;;2.71;94.69;98120.97;6200970;28;20097;-73
2023/11/25 01:34:11;;;;;;;7.78;3.92;;;;;;;2.67;95.24;98115.19;6200870;28;20073;-72
2023/11/25 01:37:15;;;;;;;6.50;3.38;;;;;;;2.66;95.15;98112.69;6201210;28;20058;-72
2023/11/25 01:40:16;;;;;;;8.50;4.28;;;;;;;2.55;94.60;98093.59;6200939;28;20421;-72
2023/11/25 01:43:21;;;;;;;10.00;4.40;;;;;;;2.56;94.59;98092.66;6199794;28;20065;-73
2023/11/25 01:46:42;;;;;;;8.07;4.68;;;;;;;2.57;94.17;98096.03;6201037;28;20137;-75
2023/11/25 01:49:44;;;;;;;7.93;4.00;;;;;;;2.50;94.02;98089.63;6198993;28;20137;-72
2023/11/25 01:52:45;;;;;;;3.90;2.55;;;;;;;2.42;94.15;98080.59;6200284;28;20057;-73
2023/11/25 01:55:51;;;;;;;5.28;2.97;;;;;;;2.47;94.31;98084.63;6200491;28;20053;-75
2023/11/25 01:58:51;;;;;;;10.50;3.33;;;;;;;2.45;93.94;98094.19;6199481;28;20057;-75
2023/11/25 02:01:54;;;;;;;5.00;3.03;;;;;;;2.44;94.22;98093.38;6200609;28;20054;-75
2023/11/25 02:04:58;;;;;;;5.82;3.30;;;;;;;2.41;93.89;98089.25;6199147;28;20497;-76
2023/11/25 02:07:59;;;;;;;4.68;3.08;;;;;;;2.38;94.06;98086.00;6200376;28;20105;-76
2023/11/25 02:11:00;;;;;;;5.57;3.03;;;;;;;2.39;94.08;98093.66;6200342;28;20050;-76
2023/11/25 02:14:01;;;;;;;3.33;2.60;;;;;;;2.41;94.05;98081.53;6199961;28;20054;-76
2023/11/25 02:17:04;;;;;;;7.93;3.55;;;;;;;2.42;93.90;98090.06;6200145;28;20061;-72
2023/11/25 02:20:08;;;;;;;15.02;4.70;;;;;;;2.51;94.45;98104.13;6199826;28;20078;-75
2023/11/25 02:23:17;;;;;;;12.38;5.80;;;;;;;2.51;94.63;98093.84;6200208;28;20054;-73
2023/11/25 02:26:20;;;;;;;10.55;5.40;;;;;;;2.49;94.93;98095.66;6198360;28;20058;-73
2023/11/25 02:29:21;;;;;;;8.90;4.25;;;;;;;2.51;95.43;98102.41;6198790;28;20054;-73
2023/11/25 02:32:23;;;;;;;4.78;3.40;;;;;;;2.51;95.45;98098.97;6197945;28;20537;-73
2023/11/25 02:35:25;;;;;;;4.75;3.35;;;;;;;2.53;95.93;98095.41;6198507;28;20057;-73
2023/11/25 02:38:26;;;;;;;5.88;3.25;;;;;;;2.62;96.40;98112.88;6198706;28;20482;-75
2023/11/25 02:41:27;;;;;;;3.95;2.60;;;;;;;2.63;96.11;98104.22;6199707;28;20138;-73
2023/11/25 02:44:30;;;;;;;4.82;3.03;;;;;;;2.63;96.04;98109.38;6199487;28;20073;-76
2023/11/25 02:47:31;;;;;;;7.68;2.22;;;;;;;2.62;96.28;98104.34;6198994;28;20523;-76
2023/11/25 02:50:35;;;;;;;5.07;2.65;;;;;;;2.61;95.82;98095.78;6199131;28;20050;-73
2023/11/25 02:53:36;;;;;;;6.03;2.40;;;;;;;2.58;96.05;98092.56;6198894;28;20054;-73
2023/11/25 02:56:37;;;;;;;4.03;2.72;;;;;;;2.55;96.04;98087.59;6199388;28;20524;-73
2023/11/25 02:59:39;;;;;;;5.47;2.60;;;;;;;2.53;95.76;98089.41;6197930;28;20050;-72
2023/11/25 03:02:39;;;;;;;5.90;2.83;;;;;;;2.49;96.01;98091.38;6199055;28;20458;-72
2023/11/25 03:05:53;;;;;;;5.72;2.92;;;;;;;2.47;95.86;98102.66;6197865;28;20061;-73
2023/11/25 03:08:55;;;;;;;;;;;;;;;2.43;95.71;98099.44;6199537;28;20050;-72
2023/11/25 03:11:58;;;;;;;;;;;;;;;2.37;95.84;98103.22;6199209;28;19921;-76
2023/11/25 03:14:59;;;;;;;4.05;2.65;;;;;;;2.28;96.29;98096.00;6197710;28;19984;-73
2023/11/25 03:18:01;;;;;;;5.22;2.90;;;;;;;2.30;96.12;98106.22;6197560;28;20054;-73
2023/11/25 03:21:03;;;;;;;6.07;3.70;;;;;;;2.26;95.80;98094.44;6197705;28;20050;-73
2023/11/25 03:24:07;;;;;;;8.98;3.65;;;;;;;2.22;95.71;98089.50;6198731;28;20055;-76
2023/11/25 03:27:08;;;;;;;7.20;3.53;;;;;;;2.23;95.61;98092.88;6198626;28;20065;-73
2023/11/25 03:30:11;;;;;;;4.38;3.03;;;;;;;2.24;95.60;98091.97;6198638;28;20371;-76
2023/11/25 03:33:12;;;;;;;;;;;;;;;2.25;95.64;98085.91;6197565;28;20058;-76
2023/11/25 03:36:13;;;;;;;6.70;3.28;;;;;;;2.23;95.14;98092.88;6197341;28;19928;-76
2023/11/25 03:39:14;;;;;;;6.60;3.00;;;;;;;2.18;95.03;98089.75;6197251;28;20390;-76
2023/11/25 03:42:19;;;;;;;6.78;3.38;;;;;;;2.14;94.93;98095.97;6198591;28;20050;-75
2023/11/25 03:45:21;;;;;;;5.60;2.80;;;;;;;2.08;94.59;98102.34;6196429;28;20046;-72
2023/11/25 03:48:22;;;;;;;2.92;2.45;;;;;;;1.98;94.68;98107.16;6198032;28;20058;-76
2023/11/25 03:51:22;;;;;;;5.82;3.67;;;;;;;1.91;94.88;98108.41;6198216;28;20085;-72
2023/11/25 03:54:23;;;;;;;6.93;3.42;;;;;;;1.91;95.31;98108.41;6197059;28;20053;-76
2023/11/25 03:57:25;;;;;;;7.80;3.80;;;;;;;1.93;95.36;98104.00;6198042;28;20058;-76
2023/11/25 04:00:26;;;;;;;5.22;3.33;;;;;;;1.95;95.28;98109.91;6197036;28;20482;-73
2023/11/25 04:03:27;;;;;;;6.35;3.30;;;;;;;1.97;94.99;98104.66;6198159;28;20061;-76
2023/11/25 04:06:28;;;;;;;6.50;3.60;;;;;;;1.94;94.82;98104.88;6196795;28;20133;-76
2023/11/25 04:09:29;;;;;;;5.65;3.17;;;;;;;1.88;95.04;98106.03;6197190;28;20046;-76
2023/11/25 04:12:30;;;;;;;7.03;3.67;;;;;;;1.88;95.15;98115.50;6196805;28;20601;-73
2023/11/25 04:15:35;;;;;;;8.18;3.50;;;;;;;1.84;95.03;98126.88;6196840;28;20047;-76
2023/11/25 04:18:37;;;;;;;7.75;3.78;;;;;;;1.79;94.70;98127.09;6196825;28;20058;-73
2023/11/25 04:21:40;;;;;;;6.55;3.25;;;;;;;1.72;94.17;98126.63;6196881;28;20061;-72
2023/11/25 04:24:40;;;;;;;;;;;;;;;1.73;94.05;98130.03;6198121;28;20058;-73
2023/11/25 04:27:42;;;;;;;4.63;3.22;;;;;;;1.72;94.54;98143.81;6196169;28;19928;-73
2023/11/25 04:30:43;;;;;;;8.32;4.82;;;;;;;1.66;94.63;98142.38;6197321;28;20050;-76
2023/11/25 04:33:44;;;;;;;10.38;5.97;;;;;;;1.69;95.14;98149.94;6197434;28;20046;-75
2023/11/25 04:36:45;;;;;;;10.68;4.90;;;;;;;1.69;95.11;98146.53;6197898;28;20055;-73
2023/11/25 04:39:46;;;;;;;7.47;3.97;;;;;;;1.76;95.57;98151.25;6196588;28;20046;-76
2023/11/25 04:42:48;;;;;;;9.82;5.82;;;;;;;1.78;95.84;98154.56;6196579;28;20050;-76
2023/11/25 04:45:49;;;;;;;6.43;4.22;;;;;;;1.84;95.49;98152.59;6197463;28;20059;-72
2023/11/25 04:48:50;;;;;;;7.70;4.25;;;;;;;1.86;95.40;98141.28;6165692;28;20134;-73
2023/11/25 04:51:51;;;;;;;7.32;4.65;;;;;;;1.84;95.80;98143.13;6172389;28;20069;-72
2023/11/25 04:54:51;;;;;;;9.98;4.70;;;;;;;1.87;96.06;98150.66;6171622;28;20478;-73
2023/11/25 04:57:53;;;;;;;6.30;3.95;;;;;;;1.92;96.47;98146.09;6172956;28;20137;-72
2023/11/25 05:00:59;;;;;;;7.15;4.32;;;;;;;1.95;96.29;98147.66;6174031;28;20059;-72
2023/11/25 05:04:05;;;;;;;7.95;4.38;;;;;;;1.89;96.08;98153.16;6176249;28;20078;-73
2023/11/25 05:07:06;;;;;;;5.22;3.45;;;;;;;1.81;95.58;98144.13;6176754;28;20055;-72
2023/11/25 05:10:09;;;;;;;9.05;4.35;;;;;;;1.77;95.39;98152.06;6177453;28;20057;-72
2023/11/25 05:13:11;;;;;;;10.63;4.80;;;;;;;1.74;95.92;98132.50;6177434;28;20051;-72
2023/11/25 05:16:11;;;;;;;12.88;5.90;;;;;;;1.75;95.59;98116.19;6177339;28;20058;-73
2023/11/25 05:19:13;;;;;;;14.57;5.93;;;;;;;1.77;95.57;98105.78;6177207;28;20134;-75
2023/11/25 05:22:14;;;;;;;19.90;6.90;;;;;;;1.73;95.63;98109.44;6176085;28;20047;-76
2023/11/25 05:25:15;;;;;;;13.65;6.97;;;;;;;1.74;94.88;98113.69;6175828;28;20054;-72
2023/11/25 05:28:19;;;;;;;17.57;8.77;;;;;;;1.70;94.95;98112.22;6176977;28;20486;-74
2023/11/25 05:31:20;;;;;;;18.02;7.07;;;;;;;1.70;94.13;98113.03;6176095;28;20059;-76
2023/11/25 05:34:23;;;;;;;16.92;6.25;;;;;;;1.72;94.64;98103.47;6174983;28;20085;-75
2023/11/25 05:37:24;;;;;;;10.15;5.13;;;;;;;1.67;94.80;98102.06;6176201;28;20406;-75
2023/11/25 05:40:29;;;;;;;12.52;4.53;;;;;;;1.65;94.64;98107.31;6175912;28;20050;-74
2023/11/25 05:43:30;;;;;;;9.68;5.20;;;;;;;1.67;95.94;98118.34;6176677;28;20042;-76
2023/11/25 05:46:31;;;;;;;11.40;5.65;;;;;;;1.62;96.15;98110.06;6165580;28;20498;-76
2023/11/25 05:49:32;;;;;;;8.40;4.97;;;;;;;1.59;96.20;98103.34;6183597;28;20055;-72
2023/11/25 05:52:33;;;;;;;10.77;5.53;;;;;;;1.62;95.50;98099.78;6152480;28;20087;-75
2023/11/25 05:55:36;;;;;;;10.32;5.68;;;;;;;1.65;95.15;98109.03;6152837;28;20054;-71
2023/11/25 05:58:38;;;;;;;12.27;5.20;;;;;;;1.65;95.20;98117.63;6152461;28;20073;-74
2023/11/25 06:01:44;;;;;;;13.27;5.65;;;;;;;1.59;95.02;98123.91;6167434;28;20047;-74
2023/11/25 06:04:45;;;;;;;9.10;5.75;;;;;;;1.50;95.15;98121.00;6152340;28;20047;-75
2023/11/25 06:07:48;;;;;;;8.95;5.53;;;;;;;1.54;95.42;98114.78;6152678;28;20055;-71
2023/11/25 06:10:50;;;;;;;14.82;6.43;;;;;;;1.57;94.89;98118.03;6152038;28;20502;-75
2023/11/25 06:13:50;;;;;;;17.58;7.05;;;;;;;1.56;94.42;98115.53;6151096;28;20470;-72
2023/11/25 06:16:53;;;;;;;14.15;8.05;;;;;;;1.56;94.16;98124.06;6151783;29;20055;-72
2023/11/25 06:19:56;;;;;;;13.73;7.10;;;;;;;1.52;93.67;98125.16;6152118;28;20071;-72
2023/11/25 06:22:56;;;;;;;21.13;10.63;;;;;;;1.55;93.32;98137.03;6151835;28;20055;-75
2023/11/25 06:25:58;;;;;;;21.45;12.25;;;;;;;1.55;93.77;98143.00;6151758;28;20772;-74
2023/11/25 06:28:58;;;;;;;23.25;12.25;;;;;;;1.48;93.66;98151.09;6150922;28;20066;-72
2023/11/25 06:31:59;;;;;;;31.13;14.75;;;;;;;1.51;94.33;98136.34;6154006;28;20059;-71
2023/11/25 06:35:00;;;;;;;22.02;12.70;;;;;;;1.51;93.89;98133.78;6199582;28;20050;-74
2023/11/25 06:38:03;;;;;;;20.83;13.20;;;;;;;1.53;93.70;98144.00;6180879;28;20062;-74
2023/11/25 06:41:05;;;;;;;22.33;12.23;;;;;;;1.46;93.55;98133.19;6217005;28;20058;-75
2023/11/25 06:44:06;;;;;;;28.75;12.27;;;;;;;1.39;93.57;98127.56;6173281;28;20050;-76
2023/11/25 06:47:07;;;;;;;15.02;10.13;;;;;;;1.45;93.99;98146.16;6189543;28;20065;-75
2023/11/25 06:50:10;;;;;;;19.38;11.02;;;;;;;1.45;92.97;98153.84;6177578;28;20050;-72
2023/11/25 06:53:11;;;;;;;18.42;11.02;;;;;;;1.50;92.55;98149.28;6179761;28;20057;-72
2023/11/25 06:56:17;;;;;;;18.65;10.43;;;;;;;1.57;92.25;98154.00;6185952;28;20051;-75
2023/11/25 06:59:18;;;;;;;18.02;10.07;;;;;;;1.63;92.35;98159.72;6168641;28;20149;-74
2023/11/25 07:02:19;;;;;;;14.02;9.07;;;;;;;1.69;92.42;98159.38;6187821;28;20055;-75
2023/11/25 07:05:20;;;;;;;14.95;8.80;;;;;;;1.73;92.03;98166.00;6184387;28;20057;-75
2023/11/25 07:08:21;;;;;;;21.10;9.75;;;;;;;1.76;92.87;98168.44;6185170;28;20069;-75
2023/11/25 07:11:25;;;;;;;20.90;10.85;;;;;;;1.87;92.69;98181.50;6180337;28;20050;-75
2023/11/25 07:14:26;;;;;;;15.35;8.15;;;;;;;1.97;92.69;98187.00;6177040;28;20042;-74
2023/11/25 07:17:27;;;;;;;14.13;6.93;;;;;;;2.09;93.35;98201.75;6181609;28;20098;-72
2023/11/25 07:20:28;;;;;;;13.30;6.47;;;;;;;2.17;93.95;98191.03;6180210;28;20052;-71
2023/11/25 07:23:31;;;;;;;10.13;5.40;;;;;;;2.34;94.97;98208.91;6167917;28;20142;-71
2023/11/25 07:26:41;;;;;;;9.38;4.75;;;;;;;2.58;95.76;98203.28;6163896;28;20134;-71
2023/11/25 07:29:44;;;;;;;4.32;3.30;;;;;;;2.70;96.14;98196.56;6157050;28;20466;-75
2023/11/25 07:32:45;;;;;;;6.93;4.93;;;;;;;2.82;96.07;98196.69;6172421;28;20054;-75
2023/11/25 07:35:49;;;;;;;11.88;4.72;;;;;;;2.98;94.93;98188.88;6166325;28;20062;-72
2023/11/25 07:38:52;;;;;;;9.43;3.70;;;;;;;3.16;95.31;98193.84;6161285;28;20529;-72
2023/11/25 07:41:53;;;;;;;10.77;5.00;;;;;;;3.13;95.61;98194.88;6173376;28;20105;-74
2023/11/25 07:44:54;;;;;;;4.82;2.90;;;;;;;3.45;95.17;98194.66;6171443;28;20450;-72
2023/11/25 07:47:55;;;;;;;7.35;4.70;;;;;;;3.59;95.58;98193.81;6173362;28;20109;-74
2023/11/25 07:51:02;;;;;;;5.75;3.17;;;;;;;3.60;95.01;98186.00;6173349;28;20587;-74
2023/11/25 07:54:03;;;;;;;4.65;2.40;;;;;;;3.63;94.47;98182.38;6189277;28;20046;-73
2023/11/25 07:57:04;;;;;;;5.10;3.15;;;;;;;3.89;94.12;98180.75;6196015;28;20493;-73
2023/11/25 08:00:15;;;;;;;7.78;3.42;;;;;;;3.92;93.76;98185.69;6196052;28;20133;-74
2023/11/25 08:03:16;;;;;;;3.92;2.55;;;;;;;3.98;93.01;98184.50;6185861;28;20815;-75
2023/11/25 08:06:25;;;;;;;5.18;2.03;;;;;;;4.03;91.76;98180.66;6171149;28;20054;-72
2023/11/25 08:09:26;;;;;;;5.93;2.88;;;;;;;4.18;91.11;98167.69;6172954;28;20051;-72
2023/11/25 08:12:27;;;;;;;6.72;3.30;;;;;;;4.29;90.38;98164.44;6172859;28;20411;-74
2023/11/25 08:15:29;;;;;;;7.50;2.85;;;;;;;4.35;90.09;98171.78;6173100;28;20051;-72
2023/11/25 08:18:31;;;;;;;6.30;3.90;;;;;;;4.42;89.43;98165.28;6182680;28;20283;-72
2023/11/25 08:21:34;;;;;;;6.28;3.45;;;;;;;4.43;89.02;98172.13;6196854;28;20418;-75
2023/11/25 08:24:35;;;;;;;5.40;3.67;;;;;;;4.42;88.15;98171.25;6176597;28;20062;-75
2023/11/25 08:27:37;;;;;;;8.48;3.83;;;;;;;4.29;87.04;98165.25;6168560;28;20055;-72
2023/11/25 08:30:38;;;;;;;5.85;3.65;;;;;;;4.23;86.28;98161.31;6160817;28;20172;-75
2023/11/25 08:33:42;;;;;;;9.45;5.45;;;;;;;4.17;86.73;98184.13;6150551;28;20553;-72
2023/11/25 08:36:52;;;;;;;7.75;4.32;;;;;;;4.25;86.59;98184.47;6153276;28;20153;-75
2023/11/25 08:39:56;;;;;;;10.55;3.83;;;;;;;4.23;86.22;98179.41;6171637;28;20054;-72
2023/11/25 08:43:08;;;;;;;8.88;3.33;;;;;;;4.56;86.70;98172.94;6177173;28;20097;-72
2023/11/25 08:46:19;;;;;;;7.30;2.80;;;;;;;4.42;85.58;98181.59;6177084;28;20097;-72
2023/11/25 08:49:21;;;;;;;6.45;3.20;;;;;;;4.85;85.28;98183.91;6176907;28;20062;-73
2023/11/25 08:52:23;;;;;;;5.70;3.08;;;;;;;5.03;84.41;98179.25;6202237;28;20050;-72
2023/11/25 08:55:27;;;;;;;6.75;3.65;;;;;;;4.97;83.23;98165.94;6201094;28;20141;-73
2023/11/25 08:58:29;;;;;;;5.25;3.20;;;;;;;5.10;83.52;98171.09;6199656;28;20050;-75
2023/11/25 09:01:39;;;;;;;5.43;3.42;;;;;;;5.28;83.44;98174.19;6201068;28;20057;-75
2023/11/25 09:04:42;;;;;;;7.38;3.63;;;;;;;5.45;83.16;98181.56;6199590;28;20082;-75
2023/11/25 09:07:44;;;;;;;7.85;4.40;;;;;;;5.45;83.01;98173.81;6200039;28;20449;-75
2023/11/25 09:10:49;;;;;;;9.55;4.88;;;;;;;5.37;82.35;98173.53;6200474;28;20134;-75
2023/11/25 09:13:50;;;;;;;8.60;4.57;;;;;;;5.41;82.44;98178.38;6199079;28;20062;-75
2023/11/25 09:16:51;;;;;;;9.10;5.55;;;;;;;5.11;82.29;98165.81;6199135;28;20058;-72
2023/11/25 09:19:52;;;;;;;9.45;4.95;;;;;;;5.31;81.48;98158.44;6200496;28;20152;-74
2023/11/25 09:22:53;;;;;;;9.13;5.10;;;;;;;5.44;80.83;98164.41;6199183;28;20054;-75
2023/11/25 09:25:54;;;;;;;8.20;3.60;;;;;;;5.33;80.31;98153.97;6199069;28;20054;-75
2023/11/25 09:28:55;;;;;;;9.35;3.75;;;;;;;5.28;79.97;98166.41;6198841;28;20050;-72
2023/11/25 09:31:56;;;;;;;5.53;3.30;;;;;;;5.27;79.82;98162.97;6170405;28;20141;-72
2023/11/25 09:34:57;;;;;;;8.90;3.40;;;;;;;5.34;79.57;98156.47;6150728;29;20062;-72
2023/11/25 09:38:01;;;;;;;4.65;3.13;;;;;;;5.57;79.44;98167.78;6167608;28;20105;-73
2023/11/25 09:41:02;;;;;;;9.05;3.08;;;;;;;5.64;77.60;98156.09;6167799;28;20066;-73
2023/11/25 09:44:07;;;;;;;7.80;2.78;;;;;;;5.88;77.09;98168.19;6151814;28;20132;-75
2023/11/25 09:47:11;;;;;;;8.27;2.90;;;;;;;5.94;76.79;98166.94;6151307;28;20059;-75
2023/11/25 09:50:13;;;;;;;4.20;2.72;;;;;;;5.97;76.01;98171.91;6150455;29;20142;-72
2023/11/25 09:53:22;;;;;;;4.72;3.13;;;;;;;6.24;75.35;98179.47;6166605;28;20055;-73
2023/11/25 09:56:23;;;;;;;5.32;2.75;;;;;;;6.28;74.16;98174.88;6166204;28;20418;-75
2023/11/25 09:59:28;;;;;;;4.18;2.97;;;;;;;6.48;73.21;98176.00;6166319;28;20585;-75
2023/11/25 10:02:30;;;;;;;6.63;3.25;;;;;;;6.30;72.67;98185.94;6166155;28;20062;-73
2023/11/25 10:05:31;;;;;;;3.93;2.20;;;;;;;6.39;71.35;98170.56;6181294;28;20255;-74
2023/11/25 10:08:34;;;;;;;8.95;3.13;;;;;;;6.19;69.56;98178.94;6198172;28;20587;-74
2023/11/25 10:11:35;;;;;;;4.03;2.70;;;;;;;6.75;71.18;98178.28;6198027;28;20046;-75
2023/11/25 10:14:46;;;;;;;4.13;2.20;;;;;;;6.60;69.73;98175.91;6199094;28;20716;-74
2023/11/25 10:17:48;;;;;;;5.43;2.70;;;;;;;6.50;70.09;98187.88;6198998;28;20057;-72
2023/11/25 10:20:51;;;;;;;3.30;2.03;;;;;;;6.32;70.99;98197.00;6199235;28;20054;-72
2023/11/25 10:23:54;;;;;;;3.50;2.53;;;;;;;5.82;73.00;98197.09;6198879;28;20058;-72
2023/11/25 10:26:55;;;;;;;5.15;2.90;;;;;;;5.38;73.47;98198.47;6198940;28;20097;-73
2023/11/25 10:29:57;;;;;;;3.08;2.10;;;;;;;5.28;73.70;98194.88;6197407;28;20408;-72
2023/11/25 10:33:01;;;;;;;4.70;2.15;;;;;;;5.22;75.68;98185.75;6197538;28;20042;-73
2023/11/25 10:36:03;;;;;;;3.60;2.38;;;;;;;5.27;75.31;98191.44;6198533;28;20054;-72
2023/11/25 10:39:08;;;;;;;2.67;2.08;;;;;;;5.10;75.71;98194.34;6198473;28;20432;-75
2023/11/25 10:42:09;;;;;;;4.78;2.83;;;;;;;5.08;75.76;98191.06;6198413;28;20477;-72
2023/11/25 10:45:23;;;;;;;4.23;2.57;;;;;;;5.14;76.39;98193.22;6197551;28;20049;-73
2023/11/25 10:48:24;;;;;;;4.68;2.63;;;;;;;5.06;75.90;98180.81;6198055;28;20058;-72
2023/11/25 10:51:28;;;;;;;5.75;2.95;;;;;;;4.98;77.74;98178.75;6198585;28;20109;-72
2023/11/25 10:54:31;;;;;;;4.82;2.63;;;;;;;5.05;78.32;98179.97;6197044;28;20130;-72
2023/11/25 10:57:33;;;;;;;5.88;3.22;;;;;;;5.25;77.23;98170.88;6197935;28;20050;-73
2023/11/25 11:00:35;;;;;;;7.78;4.05;;;;;;;4.84;78.50;98182.28;6196648;28;20133;-72
2023/11/25 11:04:02;;;;;;;6.68;4.07;;;;;;;4.93;78.67;98190.34;6198247;28;20050;-72
2023/11/25 11:07:08;;;;;;;6.13;3.30;;;;;;;4.87;77.72;98176.06;6196869;28;20060;-72
2023/11/25 11:10:17;;;;;;;5.35;3.45;;;;;;;4.81;77.05;98177.28;6198042;28;20085;-72
2023/11/25 11:13:34;;;;;;;7.35;3.75;;;;;;;4.55;77.85;98175.63;6197864;28;20058;-73
2023/11/25 11:16:42;;;;;;;8.10;4.05;;;;;;;5.22;78.09;98176.25;6196702;28;20108;-72
2023/11/25 11:19:51;;;;;;;8.63;3.92;;;;;;;5.08;77.21;98181.53;6197664;28;20050;-72
2023/11/25 11:22:58;;;;;;;6.68;3.97;;;;;;;5.25;76.56;98181.22;6196421;28;20076;-72
2023/11/25 11:26:12;;;;;;;9.15;4.32;;;;;;;5.16;75.24;98191.34;6197641;28;20424;-75
2023/11/25 11:29:28;;;;;;;12.77;5.60;;;;;;;5.15;74.88;98182.78;6197583;28;20149;-72
2023/11/25 11:32:34;;;;;;;10.68;4.55;;;;;;;5.28;75.69;98176.75;6196296;28;20051;-73
2023/11/25 11:35:39;;;;;;;7.47;4.15;;;;;;;4.92;75.00;98189.53;6197513;28;20082;-73
2023/11/25 11:38:43;;;;;;;8.63;5.05;;;;;;;4.92;75.20;98186.09;6196130;28;20104;-72
2023/11/25 11:41:44;;;;;;;8.05;5.00;;;;;;;4.84;77.38;98187.44;6196111;28;20412;-72
2023/11/25 11:45:09;;;;;;;8.70;5.32;;;;;;;4.88;76.71;98179.47;6196107;28;20050;-75
2023/11/25 11:48:13;;;;;;;8.20;4.65;;;;;;;5.00;76.75;98174.31;6195866;28;20054;-75
2023/11/25 11:51:18;;;;;;;9.18;5.00;;;;;;;4.89;76.75;98157.88;6196261;28;20076;-75
2023/11/25 11:54:27;;;;;;;10.98;5.45;;;;;;;4.21;79.21;98181.25;6196105;28;20054;-74
2023/11/25 11:57:28;;;;;;;7.88;4.53;;;;;;;4.05;80.38;98178.00;6197208;28;20046;-75
2023/11/25 12:00:31;;;;;;;7.15;3.85;;;;;;;4.22;81.25;98193.25;6196049;28;20050;-75
2023/11/25 12:03:37;;;;;;;8.65;4.93;;;;;;;4.16;81.24;98209.13;6197056;28;20413;-73
2023/11/25 12:06:40;;;;;;;11.18;5.10;;;;;;;4.01;82.21;98216.06;6196735;28;20163;-74
2023/11/25 12:09:41;;;;;;;10.70;4.80;;;;;;;3.80;82.69;98209.69;6198032;28;20054;-73
2023/11/25 12:12:43;;;;;;;12.95;5.70;;;;;;;3.75;83.35;98198.84;6190075;28;20142;-72
2023/11/25 12:15:44;;;;;;;8.48;4.93;;;;;;;3.82;83.98;98211.25;6177856;28;20135;-73
2023/11/25 12:18:47;;;;;;;8.95;5.15;;;;;;;3.70;84.63;98212.00;6177687;28;20059;-73
2023/11/25 12:21:48;;;;;;;11.15;5.82;;;;;;;3.89;84.12;98214.28;6177804;28;20051;-72
2023/11/25 12:24:51;;;;;;;11.13;5.90;;;;;;;3.91;83.74;98214.19;6177860;28;20057;-72
2023/11/25 12:28:05;;;;;;;9.18;5.15;;;;;;;4.16;82.25;98209.13;6178877;28;20493;-72
2023/11/25 12:31:08;;;;;;;6.78;3.70;;;;;;;4.16;82.10;98210.84;6201867;28;20050;-72
2023/11/25 12:34:14;;;;;;;8.07;4.40;;;;;;;2.98;86.66;98217.22;6152122;28;20054;-72
2023/11/25 12:37:16;;;;;;;11.57;5.18;;;;;;;3.20;88.07;98210.78;6193489;28;20055;-72
2023/11/25 12:40:24;;;;;;;11.98;5.80;;;;;;;2.75;90.24;98222.91;6201333;28;20050;-73
2023/11/25 12:43:24;;;;;;;15.23;6.45;;;;;;;2.73;91.04;98214.44;6200267;28;20105;-75
2023/11/25 12:46:25;;;;;;;22.20;6.03;;;;;;;2.63;90.77;98202.06;6200386;28;20129;-75
2023/11/25 12:49:29;;;;;;;18.15;6.85;;;;;;;2.83;91.13;98212.97;6180820;28;20474;-75
2023/11/25 12:52:30;;;;;;;13.60;5.82;;;;;;;2.82;91.31;98232.75;6165433;28;20532;-75
2023/11/25 12:55:43;;;;;;;14.65;6.97;;;;;;;3.05;92.20;98243.47;6176802;28;20051;-75
2023/11/25 12:58:44;;;;;;;15.63;6.57;;;;;;;2.77;92.80;98239.91;6175736;28;20492;-72
2023/11/25 13:01:47;;;;;;;13.82;6.32;;;;;;;2.82;92.33;98244.78;6175504;28;20477;-73
2023/11/25 13:04:51;;;;;;;14.60;5.60;;;;;;;2.86;93.26;98248.03;6176931;28;20042;-74
2023/11/25 13:07:54;;;;;;;13.93;6.07;;;;;;;2.96;92.49;98249.16;6176738;28;20066;-74
2023/11/25 13:10:57;;;;;;;11.02;5.80;;;;;;;3.17;91.86;98253.06;6163277;28;20414;-72
2023/11/25 13:13:58;;;;;;;19.42;8.15;;;;;;;3.16;92.03;98253.94;6161709;28;20083;-72
2023/11/25 13:17:00;;;;;;;20.60;8.18;;;;;;;3.23;92.17;98264.72;6183951;28;20684;-72
2023/11/25 13:20:03;;;;;;;26.27;9.40;;;;;;;3.37;91.82;98261.31;6180594;28;20485;-72
2023/11/25 13:23:05;;;;;;;20.33;10.00;;;;;;;3.39;91.48;98269.78;6199604;28;20500;-72
2023/11/25 13:26:07;;;;;;;15.07;7.30;;;;;;;3.44;91.94;98280.69;6199093;28;20532;-72
2023/11/25 13:29:08;;;;;;;19.38;8.73;;;;;;;3.35;93.31;98284.63;6200280;28;20085;-73
2023/11/25 13:32:10;;;;;;;22.42;9.77;;;;;;;3.33;93.47;98290.78;6200152;28;20501;-72
2023/11/25 13:35:11;;;;;;;;;;;;;;;3.39;94.21;98296.41;6181746;28;20055;-76
2023/11/25 13:38:12;;;;;;;19.25;8.95;;;;;;;3.36;94.60;98288.88;6167766;28;19981;-72
2023/11/25 13:41:13;;;;;;;23.50;12.88;;;;;;;2.98;96.52;98293.69;6173596;28;20066;-72
2023/11/25 13:44:14;;;;;;;17.67;9.95;;;;;;;3.27;96.13;98278.25;6174960;28;20047;-72
2023/11/25 13:47:16;;;;;;;16.20;8.60;;;;;;;3.34;95.04;98289.88;6175770;28;20139;-72
2023/11/25 13:50:17;;;;;;;18.00;8.27;;;;;;;3.30;95.30;98293.56;6175582;28;20410;-72
2023/11/25 13:53:18;;;;;;;18.70;8.43;;;;;;;3.24;94.31;98299.91;6174769;28;20054;-72
2023/11/25 13:56:19;;;;;;;10.65;6.75;;;;;;;2.99;93.63;98298.75;6173329;28;20134;-72
2023/11/25 13:59:20;;;;;;;15.52;7.72;;;;;;;3.16;92.73;98299.53;6185331;28;20053;-72
2023/11/25 14:02:22;;;;;;;17.13;9.52;;;;;;;3.37;91.34;98300.00;6175120;28;20046;-74
2023/11/25 14:05:23;;;;;;;15.05;7.50;;;;;;;3.43;90.27;98305.59;6175538;28;20046;-72
2023/11/25 14:08:28;;;;;;;18.30;7.65;;;;;;;3.55;89.08;98304.06;6181978;28;20061;-72
2023/11/25 14:11:31;;;;;;;16.77;8.32;;;;;;;3.58;88.57;98313.34;6199433;28;20050;-75
2023/11/25 14:14:32;;;;;;;15.32;8.52;;;;;;;3.36;89.09;98321.56;6197663;28;20445;-76
2023/11/25 14:17:39;;;;;;;14.65;8.20;;;;;;;3.48;90.04;98327.72;6199708;28;20050;-75
2023/11/25 14:20:40;;;;;;;21.70;10.35;;;;;;;3.25;90.28;98329.91;6198755;28;20046;-75
2023/11/25 14:23:41;;;;;;;18.60;8.45;;;;;;;3.56;89.67;98333.25;6198749;28;20425;-75
2023/11/25 14:26:44;;;;;;;20.73;9.60;;;;;;;3.62;88.73;98333.72;6199122;28;20057;-74
2023/11/25 14:29:47;;;;;;;16.80;8.25;;;;;;;3.36;87.00;98331.88;6197021;28;20076;-75